Time;durP1;ratioP1;P1;durP2;ratioP2;P2;SDS_P1;SDS_P2;PMS_P1;PMS_P2;Temp;Humidity;BMP_temperature;BMP_pressure;BME280_temperature;BME280_humidity;BME280_pressure;Samples;Min_cycle;Max_cycle;Signal;HPM_P1;HPM_P2
2023/07/13 00:00:43;;;;;;;;;;;;;;;;;;4945125;29;19938;-83
2023/07/13 00:03:13;;;;;;;;;;;;;;;;;;4956778;28;19942;-82
2023/07/13 00:05:41;;;;;;;;;;;;;;;;;;4947040;29;19937;-83
2023/07/13 00:08:09;;;;;;;;;;;;;;;;;;4949279;29;20294;-81
2023/07/13 00:10:36;;;;;;;;;;;;;;;;;;4944598;29;19928;-83
2023/07/13 00:13:04;;;;;;;;;;;;;;;;;;4947394;29;19934;-82
2023/07/13 00:15:31;;;;;;;;;;;;;;;;;;4946744;29;19927;-82
2023/07/13 00:18:04;;;;;;;;;;;;;;;;;;4949016;29;19935;-82
2023/07/13 00:20:32;;;;;;;;;;;;;;;;;;4948971;29;19934;-83
2023/07/13 00:22:59;;;;;;;;;;;;;;;;;;4938933;28;19930;-82
2023/07/13 00:25:32;;;;;;;;;;;;;;;;;;4946183;29;19949;-82
2023/07/13 00:27:59;;;;;;;;;;;;;;;;;;4947620;29;19931;-82
2023/07/13 00:30:27;;;;;;;;;;;;;;;;;;4949186;29;19931;-82
2023/07/13 00:32:55;;;;;;;;;;;;;;;;;;4962470;28;19934;-82
2023/07/13 00:35:27;;;;;;;;;;;;;;;;;;4964659;28;20311;-83
2023/07/13 00:38:00;;;;;;;;;;;;;;;;;;4949921;29;19941;-82
2023/07/13 00:40:27;;;;;;;;;;;;;;;;;;4959058;28;19942;-82
2023/07/13 00:42:55;;;;;;;;;;;;;;;;;;4948356;29;19942;-83
2023/07/13 00:45:27;;;;;;;;;;;;;;;;;;4950046;29;19933;-82
2023/07/13 00:48:00;;;;;;;;;;;;;;;;;;4943194;29;20288;-83
2023/07/13 00:50:32;;;;;;;;;;;;;;;;;;4940399;29;19934;-82
2023/07/13 00:53:00;;;;;;;;;;;;;;;;;;4947759;29;20398;-82
2023/07/13 00:55:32;;;;;;;;;;;;;;;;;;4943001;29;20299;-82
2023/07/13 00:58:00;;;;;;;;;;;;;;;;;;4963245;28;19927;-83
2023/07/13 01:00:33;;;;;;;;;;;;;;;;;;4963646;28;19930;-82
2023/07/13 01:03:04;;;;;;;;;;;;;;;;;;4949575;29;19953;-82
2023/07/13 01:05:37;;;;;;;;;;;;;;;;;;4948521;29;20279;-82
2023/07/13 01:08:05;;;;;;;;;;;;;;;;;;4947508;29;19941;-82
2023/07/13 01:10:39;;;;;;;;;;;;;;;;;;4946208;29;19937;-81
2023/07/13 01:13:12;;;;;;;;;;;;;;;;;;4943071;29;19931;-82
2023/07/13 01:15:44;;;;;;;;;;;;;;;;;;4940055;29;19930;-82
2023/07/13 01:18:12;;;;;;;;;;;;;;;;;;4949027;29;19949;-81
2023/07/13 01:20:45;;;;;;;;;;;;;;;;;;4942793;29;19939;-82
2023/07/13 01:23:13;;;;;;;;;;;;;;;;;;4946838;29;20724;-82
2023/07/13 01:25:41;;;;;;;;;;;;;;;;;;4940207;29;20283;-81
2023/07/13 01:28:09;;;;;;;;;;;;;;;;;;4949159;29;19954;-83
2023/07/13 01:30:45;;;;;;;;;;;;;;;;;;4947712;29;20393;-82
2023/07/13 01:33:12;;;;;;;;;;;;;;;;;;4963287;28;19946;-82
2023/07/13 01:35:45;;;;;;;;;;;;;;;;;;4950099;28;19941;-82
2023/07/13 01:38:12;;;;;;;;;;;;;;;;;;4946247;29;20295;-82
2023/07/13 01:40:42;;;;;;;;;;;;;;;;;;4948184;29;20274;-80
2023/07/13 01:43:14;;;;;;;;;;;;;;;;;;4948193;29;20120;-82
2023/07/13 01:45:47;;;;;;;;;;;;;;;;;;4951159;29;19950;-82
2023/07/13 01:48:14;;;;;;;;;;;;;;;;;;4952225;29;19934;-82
2023/07/13 01:50:42;;;;;;;;;;;;;;;;;;4966405;28;19926;-82
2023/07/13 01:53:09;;;;;;;;;;;;;;;;;;4947895;28;19926;-82
2023/07/13 01:55:37;;;;;;;;;;;;;;;;;;4944325;29;19938;-82
2023/07/13 01:58:04;;;;;;;;;;;;;;;;;;4962657;28;19930;-82
2023/07/13 02:00:37;;;;;;;;;;;;;;;;;;4951913;29;19933;-82
2023/07/13 02:03:04;;;;;;;;;;;;;;;;;;4964280;28;19926;-83
2023/07/13 02:05:32;;;;;;;;;;;;;;;;;;4950490;29;20290;-82
2023/07/13 02:08:00;;;;;;;;;;;;;;;;;;4965188;28;19927;-81
2023/07/13 02:10:32;;;;;;;;;;;;;;;;;;4947253;28;19926;-81
2023/07/13 02:13:00;;;;;;;;;;;;;;;;;;4963630;28;19927;-82
2023/07/13 02:15:27;;;;;;;;;;;;;;;;;;4948723;29;19930;-82
2023/07/13 02:17:55;;;;;;;;;;;;;;;;;;4961625;28;20632;-82
2023/07/13 02:20:23;;;;;;;;;;;;;;;;;;4956247;28;19931;-82
2023/07/13 02:22:50;;;;;;;;;;;;;;;;;;4966724;28;19930;-81
2023/07/13 02:25:19;;;;;;;;;;;;;;;;;;4950122;29;19934;-83
2023/07/13 02:27:52;;;;;;;;;;;;;;;;;;4965170;28;19938;-81
2023/07/13 02:30:20;;;;;;;;;;;;;;;;;;4940808;29;20401;-81
2023/07/13 02:32:54;;;;;;;;;;;;;;;;;;4948028;29;20419;-82
2023/07/13 02:35:22;;;;;;;;;;;;;;;;;;4957548;28;19999;-81
2023/07/13 02:37:49;;;;;;;;;;;;;;;;;;4949312;29;19927;-81
2023/07/13 02:40:17;;;;;;;;;;;;;;;;;;4959956;28;19927;-82
2023/07/13 02:42:44;;;;;;;;;;;;;;;;;;4943979;29;19926;-82
2023/07/13 02:45:13;;;;;;;;;;;;;;;;;;4951179;29;20437;-82
2023/07/13 02:47:45;;;;;;;;;;;;;;;;;;4942352;28;19934;-82
2023/07/13 02:50:13;;;;;;;;;;;;;;;;;;4948238;29;19927;-82
2023/07/13 02:52:40;;;;;;;;;;;;;;;;;;4948953;29;20272;-82
2023/07/13 02:55:08;;;;;;;;;;;;;;;;;;4949190;29;19931;-82
2023/07/13 02:57:35;;;;;;;;;;;;;;;;;;4965596;28;19934;-82
2023/07/13 03:00:05;;;;;;;;;;;;;;;;;;4956160;28;19968;-82
2023/07/13 03:02:39;;;;;;;;;;;;;;;;;;4949003;29;19930;-82
2023/07/13 03:05:06;;;;;;;;;;;;;;;;;;4942966;28;19930;-82
2023/07/13 03:07:39;;;;;;;;;;;;;;;;;;4947024;29;19930;-82
2023/07/13 03:10:11;;;;;;;;;;;;;;;;;;4946152;29;19926;-82
2023/07/13 03:12:48;;;;;;;;;;;;;;;;;;4947509;29;19930;-81
2023/07/13 03:15:24;;;;;;;;;;;;;;;;;;4947791;29;19937;-81
2023/07/13 03:17:58;;;;;;;;;;;;;;;;;;4961176;28;19927;-82
2023/07/13 03:20:26;;;;;;;;;;;;;;;;;;4949080;28;19935;-82
2023/07/13 03:22:53;;;;;;;;;;;;;;;;;;4965157;28;20727;-81
2023/07/13 03:25:27;;;;;;;;;;;;;;;;;;4947655;29;19931;-82
2023/07/13 03:27:55;;;;;;;;;;;;;;;;;;4946840;28;20415;-80
2023/07/13 03:30:23;;;;;;;;;;;;;;;;;;4947392;29;19927;-81
2023/07/13 03:32:53;;;;;;;;;;;;;;;;;;4964523;28;19931;-82
2023/07/13 03:35:20;;;;;;;;;;;;;;;;;;4948876;29;19946;-82
2023/07/13 03:37:53;;;;;;;;;;;;;;;;;;4946025;29;19941;-80
2023/07/13 03:40:21;;;;;;;;;;;;;;;;;;4954620;28;19927;-82
2023/07/13 03:42:48;;;;;;;;;;;;;;;;;;4949970;29;20248;-82
2023/07/13 03:45:18;;;;;;;;;;;;;;;;;;4942313;29;20015;-82
2023/07/13 03:47:46;;;;;;;;;;;;;;;;;;4962968;28;19935;-81
2023/07/13 03:50:14;;;;;;;;;;;;;;;;;;4947476;29;19938;-81
2023/07/13 03:52:42;;;;;;;;;;;;;;;;;;4942678;29;19930;-82
2023/07/13 03:55:09;;;;;;;;;;;;;;;;;;4948832;29;19931;-82
2023/07/13 03:57:37;;;;;;;;;;;;;;;;;;4941751;28;20801;-81
2023/07/13 04:00:05;;;;;;;;;;;;;;;;;;4961586;28;19946;-82
2023/07/13 04:02:42;;;;;;;;;;;;;;;;;;4949549;28;19935;-81
2023/07/13 04:05:09;;;;;;;;;;;;;;;;;;4962108;28;19933;-80
2023/07/13 04:07:37;;;;;;;;;;;;;;;;;;4955873;28;19930;-81
2023/07/13 04:10:06;;;;;;;;;;;;;;;;;;4947443;29;19934;-80
2023/07/13 04:12:39;;;;;;;;;;;;;;;;;;4948139;29;19934;-81
2023/07/13 04:15:06;;;;;;;;;;;;;;;;;;4963027;28;19934;-82
2023/07/13 04:17:34;;;;;;;;;;;;;;;;;;4947728;29;19937;-81
2023/07/13 04:20:06;;;;;;;;;;;;;;;;;;4948262;29;19941;-81
2023/07/13 04:22:39;;;;;;;;;;;;;;;;;;4947098;29;19930;-82
2023/07/13 04:25:11;;;;;;;;;;;;;;;;;;4945798;29;19930;-81
2023/07/13 04:27:39;;;;;;;;;;;;;;;;;;4949647;29;19926;-81
2023/07/13 04:30:07;;;;;;;;;;;;;;;;;;4941339;29;19941;-81
2023/07/13 04:32:39;;;;;;;;;;;;;;;;;;4947072;29;20386;-81
2023/07/13 04:35:13;;;;;;;;;;;;;;;;;;4949317;29;19941;-81
2023/07/13 04:37:46;;;;;;;;;;;;;;;;;;4936727;29;19935;-81
2023/07/13 04:40:18;;;;;;;;;;;;;;;;;;4948074;29;19926;-82
2023/07/13 04:42:46;;;;;;;;;;;;;;;;;;4959674;28;19941;-82
2023/07/13 04:45:14;;;;;;;;;;;;;;;;;;4957728;28;19927;-82
2023/07/13 04:47:41;;;;;;;;;;;;;;;;;;4946775;29;19934;-81
2023/07/13 04:50:09;;;;;;;;;;;;;;;;;;4945615;29;20286;-82
2023/07/13 04:52:36;;;;;;;;;;;;;;;;;;4949529;29;19931;-81
2023/07/13 04:55:04;;;;;;;;;;;;;;;;;;4963420;28;19937;-82
2023/07/13 04:57:32;;;;;;;;;;;;;;;;;;4947143;29;19938;-83
2023/07/13 05:00:00;;;;;;;;;;;;;;;;;;4963715;28;19942;-82
2023/07/13 05:02:34;;;;;;;;;;;;;;;;;;4942243;29;19931;-82
2023/07/13 05:05:01;;;;;;;;;;;;;;;;;;4955056;28;19934;-82
2023/07/13 05:07:34;;;;;;;;;;;;;;;;;;4947779;29;19934;-81
2023/07/13 05:10:03;;;;;;;;;;;;;;;;;;4942940;28;19930;-82
2023/07/13 05:12:36;;;;;;;;;;;;;;;;;;4947029;29;19941;-82
2023/07/13 05:15:09;;;;;;;;;;;;;;;;;;4945951;29;19934;-80
2023/07/13 05:17:41;;;;;;;;;;;;;;;;;;4947072;28;19931;-82
2023/07/13 05:20:09;;;;;;;;;;;;;;;;;;4952870;28;19930;-82
2023/07/13 05:22:36;;;;;;;;;;;;;;;;;;4946297;29;19938;-82
2023/07/13 05:25:04;;;;;;;;;;;;;;;;;;4953284;28;20383;-83
2023/07/13 05:27:31;;;;;;;;;;;;;;;;;;4945991;28;19931;-83
2023/07/13 05:29:59;;;;;;;;;;;;;;;;;;4954419;28;19926;-83
2023/07/13 05:32:31;;;;;;;;;;;;;;;;;;4961759;28;19927;-82
2023/07/13 05:34:59;;;;;;;;;;;;;;;;;;4946955;29;20873;-83
2023/07/13 05:37:26;;;;;;;;;;;;;;;;;;4953847;28;19930;-82
2023/07/13 05:39:59;;;;;;;;;;;;;;;;;;4945492;29;19930;-82
2023/07/13 05:42:26;;;;;;;;;;;;;;;;;;4948755;29;19933;-83
2023/07/13 05:44:54;;;;;;;;;;;;;;;;;;4943460;29;19926;-82
2023/07/13 05:47:26;;;;;;;;;;;;;;;;;;4941096;29;19931;-84
2023/07/13 05:49:54;;;;;;;;;;;;;;;;;;4945807;29;19930;-82
2023/07/13 05:52:26;;;;;;;;;;;;;;;;;;4947612;29;19930;-82
2023/07/13 05:54:54;;;;;;;;;;;;;;;;;;4945735;29;19926;-82
2023/07/13 05:57:26;;;;;;;;;;;;;;;;;;4948820;29;19937;-82
2023/07/13 05:59:54;;;;;;;;;;;;;;;;;;4947745;29;20690;-83
2023/07/13 06:02:22;;;;;;;;;;;;;;;;;;4940312;28;19927;-83
2023/07/13 06:04:54;;;;;;;;;;;;;;;;;;4944432;28;19938;-83
2023/07/13 06:07:27;;;;;;;;;;;;;;;;;;4943515;29;19942;-80
2023/07/13 06:09:55;;;;;;;;;;;;;;;;;;4948082;28;19926;-81
2023/07/13 06:12:27;;;;;;;;;;;;;;;;;;4945870;29;19930;-83
2023/07/13 06:15:00;;;;;;;;;;;;;;;;;;4945548;29;19931;-82
2023/07/13 06:17:27;;;;;;;;;;;;;;;;;;4948978;29;19930;-83
2023/07/13 06:20:00;;;;;;;;;;;;;;;;;;4960665;28;19934;-82
2023/07/13 06:22:27;;;;;;;;;;;;;;;;;;4946387;28;19931;-83
2023/07/13 06:24:55;;;;;;;;;;;;;;;;;;4948931;29;19931;-82
2023/07/13 06:27:23;;;;;;;;;;;;;;;;;;4965567;28;19930;-84
2023/07/13 06:29:50;;;;;;;;;;;;;;;;;;4941429;29;19930;-84
2023/07/13 06:32:18;;;;;;;;;;;;;;;;;;4962996;28;19931;-83
2023/07/13 06:34:45;;;;;;;;;;;;;;;;;;4947858;29;20416;-83
2023/07/13 06:37:13;;;;;;;;;;;;;;;;;;4960300;28;21005;-83
2023/07/13 06:39:41;;;;;;;;;;;;;;;;;;4947261;29;19941;-84
2023/07/13 06:42:13;;;;;;;;;;;;;;;;;;4949642;29;19949;-84
2023/07/13 06:44:41;;;;;;;;;;;;;;;;;;4949768;29;19931;-85
2023/07/13 06:47:08;;;;;;;;;;;;;;;;;;4944163;29;19927;-83
2023/07/13 06:49:41;;;;;;;;;;;;;;;;;;4942998;29;19937;-83
2023/07/13 06:52:13;;;;;;;;;;;;;;;;;;4962559;28;19989;-84
2023/07/13 06:54:41;;;;;;;;;;;;;;;;;;4944220;29;20401;-81
2023/07/13 06:57:09;;;;;;;;;;;;;;;;;;4943583;29;19930;-82
2023/07/13 06:59:41;;;;;;;;;;;;;;;;;;4945982;29;19934;-80
2023/07/13 07:02:09;;;;;;;;;;;;;;;;;;4945820;28;20045;-82
2023/07/13 07:04:36;;;;;;;;;;;;;;;;;;4947902;29;19930;-83
2023/07/13 07:07:07;;;;;;;;;;;;;;;;;;4942637;29;19937;-82
2023/07/13 07:09:34;;;;;;;;;;;;;;;;;;4944981;29;19934;-84
2023/07/13 07:12:02;;;;;;;;;;;;;;;;;;4947266;28;20311;-83
2023/07/13 07:14:29;;;;;;;;;;;;;;;;;;4948256;29;19930;-82
2023/07/13 07:17:02;;;;;;;;;;;;;;;;;;4945497;29;20283;-83
2023/07/13 07:19:30;;;;;;;;;;;;;;;;;;4942057;28;19934;-82
2023/07/13 07:22:02;;;;;;;;;;;;;;;;;;4946717;29;19931;-81
2023/07/13 07:24:30;;;;;;;;;;;;;;;;;;4940869;29;20383;-85
2023/07/13 07:26:57;;;;;;;;;;;;;;;;;;4943606;28;19931;-82
2023/07/13 07:29:26;;;;;;;;;;;;;;;;;;4945400;29;19930;-82
2023/07/13 07:31:58;;;;;;;;;;;;;;;;;;4944617;29;19931;-80
2023/07/13 07:34:26;;;;;;;;;;;;;;;;;;4939348;28;20316;-83
2023/07/13 07:36:59;;;;;;;;;;;;;;;;;;4944585;29;19957;-81
2023/07/13 07:39:26;;;;;;;;;;;;;;;;;;4945030;29;19931;-81
2023/07/13 07:41:57;;;;;;;;;;;;;;;;;;4946143;29;19938;-81
2023/07/13 07:44:29;;;;;;;;;;;;;;;;;;4946001;29;19930;-81
2023/07/13 07:46:57;;;;;;;;;;;;;;;;;;4934476;29;20557;-80
2023/07/13 07:49:24;;;;;;;;;;;;;;;;;;4923086;29;19946;-81
2023/07/13 07:51:52;;;;;;;;;;;;;;;;;;4928251;29;21493;-80
2023/07/13 07:54:19;;;;;;;;;;;;;;;;;;4912705;29;19935;-81
2023/07/13 07:56:47;;;;;;;;;;;;;;;;;;4920602;29;19942;-82
2023/07/13 07:59:20;;;;;;;;;;;;;;;;;;4915171;29;19935;-80
2023/07/13 08:01:50;;;;;;;;;;;;;;;;;;4915471;29;19945;-81
2023/07/13 08:04:25;;;;;;;;;;;;;;;;;;4912281;28;19934;-81
2023/07/13 08:06:57;;;;;;;;;;;;;;;;;;4919107;29;19935;-81
2023/07/13 08:09:30;;;;;;;;;;;;;;;;;;4917864;28;19931;-82
2023/07/13 08:11:58;;;;;;;;;;;;;;;;;;4917659;29;20507;-82
2023/07/13 08:14:25;;;;;;;;;;;;;;;;;;4912671;29;20409;-82
2023/07/13 08:16:53;;;;;;;;;;;;;;;;;;4913905;28;19935;-81
2023/07/13 08:19:21;;;;;;;;;;;;;;;;;;4905316;28;19934;-80
2023/07/13 08:21:49;;;;;;;;;;;;;;;;;;4910121;29;20461;-81
2023/07/13 08:24:22;;;;;;;;;;;;;;;;;;4912821;29;19934;-80
2023/07/13 08:26:50;;;;;;;;;;;;;;;;;;4908960;28;21291;-81
2023/07/13 08:29:17;;;;;;;;;;;;;;;;;;4910193;29;19942;-81
2023/07/13 08:31:45;;;;;;;;;;;;;;;;;;4907020;29;19935;-81
2023/07/13 08:34:18;;;;;;;;;;;;;;;;;;4907921;28;19935;-81
2023/07/13 08:36:50;;;;;;;;;;;;;;;;;;4911072;29;19935;-80
2023/07/13 08:39:18;;;;;;;;;;;;;;;;;;4910863;29;19935;-81
2023/07/13 08:41:46;;;;;;;;;;;;;;;;;;4900323;28;21599;-82
2023/07/13 08:44:13;;;;;;;;;;;;;;;;;;4906698;29;20727;-81
2023/07/13 08:46:41;;;;;;;;;;;;;;;;;;4906459;28;19957;-81
2023/07/13 08:49:09;;;;;;;;;;;;;;;;;;4906980;29;19930;-81
2023/07/13 08:51:42;;;;;;;;;;;;;;;;;;4905700;29;19941;-80
2023/07/13 08:54:15;;;;;;;;;;;;;;;;;;4906040;28;19934;-81
2023/07/13 08:56:42;;;;;;;;;;;;;;;;;;4922686;28;19934;-80
2023/07/13 08:59:10;;;;;;;;;;;;;;;;;;4909421;29;19935;-81
2023/07/13 09:01:38;;;;;;;;;;;;;;;;;;4912208;29;19935;-80
2023/07/13 09:04:05;;;;;;;;;;;;;;;;;;4915475;28;21154;-82
2023/07/13 09:06:33;;;;;;;;;;;;;;;;;;4912135;28;19934;-79
2023/07/13 09:09:01;;;;;;;;;;;;;;;;;;4909065;29;19934;-81
2023/07/13 09:11:28;;;;;;;;;;;;;;;;;;4914325;29;19942;-81
2023/07/13 09:13:56;;;;;;;;;;;;;;;;;;4910367;29;19941;-81
2023/07/13 09:16:23;;;;;;;;;;;;;;;;;;4911373;29;19926;-82
2023/07/13 09:18:56;;;;;;;;;;;;;;;;;;4912789;29;19934;-80
2023/07/13 09:21:23;;;;;;;;;;;;;;;;;;4918467;29;19941;-84
2023/07/13 09:23:51;;;;;;;;;;;;;;;;;;4908538;28;20620;-81
2023/07/13 09:26:19;;;;;;;;;;;;;;;;;;4916091;28;19931;-81
2023/07/13 09:28:51;;;;;;;;;;;;;;;;;;4915088;29;21538;-80
2023/07/13 09:31:19;;;;;;;;;;;;;;;;;;4910345;29;19934;-80
2023/07/13 09:33:46;;;;;;;;;;;;;;;;;;4913741;29;19935;-82
2023/07/13 09:36:14;;;;;;;;;;;;;;;;;;4917642;29;19935;-79
2023/07/13 09:38:42;;;;;;;;;;;;;;;;;;4909264;29;19935;-83
2023/07/13 09:41:10;;;;;;;;;;;;;;;;;;4910397;29;20778;-80
2023/07/13 09:43:38;;;;;;;;;;;;;;;;;;4915179;29;20589;-79
2023/07/13 09:46:10;;;;;;;;;;;;;;;;;;4909586;29;19934;-84
2023/07/13 09:48:43;;;;;;;;;;;;;;;;;;4908398;28;19935;-80
2023/07/13 09:51:11;;;;;;;;;;;;;;;;;;4927052;28;19935;-81
2023/07/13 09:53:39;;;;;;;;;;;;;;;;;;4913943;28;19931;-82
2023/07/13 09:56:07;;;;;;;;;;;;;;;;;;4909607;28;19935;-81
2023/07/13 09:58:40;;;;;;;;;;;;;;;;;;4913988;29;19931;-81
2023/07/13 10:01:14;;;;;;;;;;;;;;;;;;4915194;29;20454;-81
2023/07/13 10:03:46;;;;;;;;;;;;;;;;;;4911093;28;19941;-80
2023/07/13 10:06:18;;;;;;;;;;;;;;;;;;4908710;29;19935;-81
2023/07/13 10:08:46;;;;;;;;;;;;;;;;;;4913839;29;19942;-81
2023/07/13 10:11:14;;;;;;;;;;;;;;;;;;4915779;29;19934;-82
2023/07/13 10:13:41;;;;;;;;;;;;;;;;;;4919465;29;19934;-80
2023/07/13 10:16:09;;;;;;;;;;;;;;;;;;4914275;28;19934;-81
2023/07/13 10:18:36;;;;;;;;;;;;;;;;;;4911065;29;19942;-81
2023/07/13 10:21:09;;;;;;;;;;;;;;;;;;4917763;29;19934;-80
2023/07/13 10:23:37;;;;;;;;;;;;;;;;;;4924402;28;19934;-80
2023/07/13 10:26:04;;;;;;;;;;;;;;;;;;4912418;29;20374;-83
2023/07/13 10:28:37;;;;;;;;;;;;;;;;;;4919180;29;19942;-84
2023/07/13 10:31:11;;;;;;;;;;;;;;;;;;4912418;29;19941;-82
2023/07/13 10:33:43;;;;;;;;;;;;;;;;;;4913798;28;20477;-80
2023/07/13 10:36:16;;;;;;;;;;;;;;;;;;4919443;29;19935;-81
2023/07/13 10:38:47;;;;;;;;;;;;;;;;;;4913018;29;20489;-82
2023/07/13 10:41:17;;;;;;;;;;;;;;;;;;4933350;28;19931;-82
2023/07/13 10:43:44;;;;;;;;;;;;;;;;;;4915836;29;19946;-86
2023/07/13 10:46:12;;;;;;;;;;;;;;;;;;4916937;28;20500;-81
2023/07/13 10:48:41;;;;;;;;;;;;;;;;;;4893540;28;19945;-81
2023/07/13 10:51:13;;;;;;;;;;;;;;;;;;4920360;29;19934;-81
2023/07/13 10:53:44;;;;;;;;;;;;;;;;;;4916302;29;19934;-82
2023/07/13 10:56:17;;;;;;;;;;;;;;;;;;4910714;29;20403;-80
2023/07/13 10:58:45;;;;;;;;;;;;;;;;;;4923456;28;19934;-83
2023/07/13 11:01:18;;;;;;;;;;;;;;;;;;4925427;28;19942;-79
2023/07/13 11:03:45;;;;;;;;;;;;;;;;;;4916751;29;19934;-81
2023/07/13 11:06:19;;;;;;;;;;;;;;;;;;4921166;29;19935;-80
2023/07/13 11:08:47;;;;;;;;;;;;;;;;;;4912512;29;19934;-81
2023/07/13 11:11:14;;;;;;;;;;;;;;;;;;4927478;29;20405;-81
2023/07/13 11:13:45;;;;;;;;;;;;;;;;;;4910182;28;19935;-81
2023/07/13 11:16:13;;;;;;;;;;;;;;;;;;4913162;28;19934;-80
2023/07/13 11:18:43;;;;;;;;;;;;;;;;;;4926110;28;20152;-81
2023/07/13 11:21:11;;;;;;;;;;;;;;;;;;4920389;29;19942;-80
2023/07/13 11:23:40;;;;;;;;;;;;;;;;;;4910133;29;19946;-81
2023/07/13 11:26:08;;;;;;;;;;;;;;;;;;4912998;28;20067;-82
2023/07/13 11:28:35;;;;;;;;;;;;;;;;;;4906123;28;19942;-80
2023/07/13 11:31:03;;;;;;;;;;;;;;;;;;4906709;29;19946;-80
2023/07/13 11:33:31;;;;;;;;;;;;;;;;;;4915922;29;20782;-81
2023/07/13 11:35:59;;;;;;;;;;;;;;;;;;4920937;28;19942;-81
2023/07/13 11:38:26;;;;;;;;;;;;;;;;;;4922418;28;19934;-82
2023/07/13 11:40:54;;;;;;;;;;;;;;;;;;4907691;28;19950;-82
2023/07/13 11:43:25;;;;;;;;;;;;;;;;;;4911888;29;19934;-80
2023/07/13 11:45:53;;;;;;;;;;;;;;;;;;4910062;29;19934;-81
2023/07/13 11:48:21;;;;;;;;;;;;;;;;;;4891354;28;19938;-81
2023/07/13 11:50:54;;;;;;;;;;;;;;;;;;4910675;29;20291;-81
2023/07/13 11:53:22;;;;;;;;;;;;;;;;;;4922664;29;20690;-82
2023/07/13 11:55:49;;;;;;;;;;;;;;;;;;4918508;29;19934;-80
2023/07/13 11:58:22;;;;;;;;;;;;;;;;;;4911163;29;19942;-80
2023/07/13 12:00:49;;;;;;;;;;;;;;;;;;4925081;28;19939;-83
2023/07/13 12:03:17;;;;;;;;;;;;;;;;;;4909649;29;19935;-81
2023/07/13 12:05:45;;;;;;;;;;;;;;;;;;4919440;29;19935;-81
2023/07/13 12:08:19;;;;;;;;;;;;;;;;;;4908566;29;19942;-83
2023/07/13 12:10:47;;;;;;;;;;;;;;;;;;4906686;28;19949;-80
2023/07/13 12:13:20;;;;;;;;;;;;;;;;;;4909564;29;19934;-80
2023/07/13 12:15:48;;;;;;;;;;;;;;;;;;4912102;29;19941;-83
2023/07/13 12:18:21;;;;;;;;;;;;;;;;;;4909870;29;19935;-81
2023/07/13 12:20:48;;;;;;;;;;;;;;;;;;4912109;29;20326;-82
2023/07/13 12:23:16;;;;;;;;;;;;;;;;;;4905800;29;19946;-81
2023/07/13 12:25:44;;;;;;;;;;;;;;;;;;4907464;29;19942;-82
2023/07/13 12:28:16;;;;;;;;;;;;;;;;;;4906640;29;19935;-82
2023/07/13 12:30:49;;;;;;;;;;;;;;;;;;4912329;29;20007;-81
2023/07/13 12:33:16;;;;;;;;;;;;;;;;;;4922332;28;21737;-80
2023/07/13 12:35:49;;;;;;;;;;;;;;;;;;4911347;29;19931;-80
2023/07/13 12:38:16;;;;;;;;;;;;;;;;;;4912111;28;20411;-82
2023/07/13 12:40:44;;;;;;;;;;;;;;;;;;4918479;29;19941;-80
2023/07/13 12:43:12;;;;;;;;;;;;;;;;;;4928737;28;20727;-80
2023/07/13 12:45:39;;;;;;;;;;;;;;;;;;4905001;29;19942;-80
2023/07/13 12:48:12;;;;;;;;;;;;;;;;;;4883135;29;20375;-80
2023/07/13 12:50:40;;;;;;;;;;;;;;;;;;4914203;29;19934;-80
2023/07/13 12:53:08;;;;;;;;;;;;;;;;;;4914072;29;20772;-80
2023/07/13 12:55:41;;;;;;;;;;;;;;;;;;4916343;28;19935;-81
2023/07/13 12:58:09;;;;;;;;;;;;;;;;;;4909996;29;20503;-81
2023/07/13 13:00:41;;;;;;;;;;;;;;;;;;4914218;29;19941;-80
2023/07/13 13:03:09;;;;;;;;;;;;;;;;;;4925456;28;20485;-82
2023/07/13 13:05:37;;;;;;;;;;;;;;;;;;4909367;28;19938;-79
2023/07/13 13:08:05;;;;;;;;;;;;;;;;;;4912285;29;19942;-81
2023/07/13 13:10:37;;;;;;;;;;;;;;;;;;4931244;28;19941;-82
2023/07/13 13:13:05;;;;;;;;;;;;;;;;;;4926657;28;19942;-83
2023/07/13 13:15:32;;;;;;;;;;;;;;;;;;4908906;29;19961;-80
2023/07/13 13:18:00;;;;;;;;;;;;;;;;;;4911129;29;19941;-82
2023/07/13 13:20:28;;;;;;;;;;;;;;;;;;4915872;29;19934;-80
2023/07/13 13:23:00;;;;;;;;;;;;;;;;;;4912695;29;19935;-82
2023/07/13 13:25:28;;;;;;;;;;;;;;;;;;4918524;28;19930;-81
2023/07/13 13:27:56;;;;;;;;;;;;;;;;;;4909307;29;19935;-81
2023/07/13 13:30:26;;;;;;;;;;;;;;;;;;4923383;28;19942;-82
2023/07/13 13:32:54;;;;;;;;;;;;;;;;;;4913708;29;19935;-82
2023/07/13 13:35:22;;;;;;;;;;;;;;;;;;4914922;29;19935;-82
2023/07/13 13:37:51;;;;;;;;;;;;;;;;;;4913144;29;20658;-83
2023/07/13 13:40:18;;;;;;;;;;;;;;;;;;4919359;29;19935;-86
2023/07/13 13:42:46;;;;;;;;;;;;;;;;;;4917881;28;19935;-85
2023/07/13 13:45:15;;;;;;;;;;;;;;;;;;4923760;28;20583;-86
2023/07/13 13:47:43;;;;;;;;;;;;;;;;;;4891250;28;20319;-83
2023/07/13 13:50:11;;;;;;;;;;;;;;;;;;4914291;28;19945;-85
2023/07/13 13:52:38;;;;;;;;;;;;;;;;;;4916176;29;19935;-86
2023/07/13 13:55:06;;;;;;;;;;;;;;;;;;4919193;29;19935;-83
2023/07/13 13:57:34;;;;;;;;;;;;;;;;;;4919854;29;20358;-82
2023/07/13 14:00:01;;;;;;;;;;;;;;;;;;4920113;29;21741;-86
2023/07/13 14:02:34;;;;;;;;;;;;;;;;;;4921542;29;19942;-86
2023/07/13 14:05:01;;;;;;;;;;;;;;;;;;4916963;28;19934;-86
2023/07/13 14:07:31;;;;;;;;;;;;;;;;;;4917408;29;19938;-81
2023/07/13 14:10:03;;;;;;;;;;;;;;;;;;4912563;29;19938;-84
2023/07/13 14:12:31;;;;;;;;;;;;;;;;;;4915189;29;19949;-82
2023/07/13 14:14:58;;;;;;;;;;;;;;;;;;4910646;28;19934;-82
2023/07/13 14:17:26;;;;;;;;;;;;;;;;;;4918718;29;19934;-81
2023/07/13 14:19:56;;;;;;;;;;;;;;;;;;4925942;28;19934;-83
2023/07/13 14:22:24;;;;;;;;;;;;;;;;;;4922260;29;19959;-85
2023/07/13 14:24:53;;;;;;;;;;;;;;;;;;4918179;29;19938;-82
2023/07/13 14:27:20;;;;;;;;;;;;;;;;;;4919304;29;19942;-83
2023/07/13 14:29:53;;;;;;;;;;;;;;;;;;4910825;29;20509;-85
2023/07/13 14:32:20;;;;;;;;;;;;;;;;;;4915460;28;19934;-81
2023/07/13 14:34:48;;;;;;;;;;;;;;;;;;4907679;29;19935;-81
2023/07/13 14:37:16;;;;;;;;;;;;;;;;;;4913038;29;19931;-80
2023/07/13 14:39:43;;;;;;;;;;;;;;;;;;4915101;28;20493;-80
2023/07/13 14:42:16;;;;;;;;;;;;;;;;;;4910125;29;19937;-80
2023/07/13 14:44:43;;;;;;;;;;;;;;;;;;4917072;29;20709;-79
2023/07/13 14:47:16;;;;;;;;;;;;;;;;;;4915969;29;19965;-80
2023/07/13 14:49:48;;;;;;;;;;;;;;;;;;4888042;28;19935;-80
2023/07/13 14:52:21;;;;;;;;;;;;;;;;;;4927712;28;21358;-80
2023/07/13 14:54:48;;;;;;;;;;;;;;;;;;4918858;29;19935;-80
2023/07/13 14:57:16;;;;;;;;;;;;;;;;;;4906304;29;19939;-81
2023/07/13 14:59:45;;;;;;;;;;;;;;;;;;4904256;28;20583;-80
2023/07/13 15:02:12;;;;;;;;;;;;;;;;;;4907626;29;20307;-79
2023/07/13 15:04:40;;;;;;;;;;;;;;;;;;4910981;29;19935;-79
2023/07/13 15:07:08;;;;;;;;;;;;;;;;;;4907237;29;19935;-79
2023/07/13 15:09:36;;;;;;;;;;;;;;;;;;4914085;28;19941;-79
2023/07/13 15:12:05;;;;;;;;;;;;;;;;;;4910000;29;19942;-79
2023/07/13 15:14:33;;;;;;;;;;;;;;;;;;4909270;29;19935;-78
2023/07/13 15:17:05;;;;;;;;;;;;;;;;;;4907142;29;19946;-79
2023/07/13 15:19:33;;;;;;;;;;;;;;;;;;4909187;29;19969;-79
2023/07/13 15:22:01;;;;;;;;;;;;;;;;;;4913552;29;19934;-79
2023/07/13 15:24:28;;;;;;;;;;;;;;;;;;4915270;28;19934;-79
2023/07/13 15:26:56;;;;;;;;;;;;;;;;;;4916675;29;19934;-78
2023/07/13 15:29:24;;;;;;;;;;;;;;;;;;4916925;29;19930;-80
2023/07/13 15:31:56;;;;;;;;;;;;;;;;;;4908934;29;19942;-78
2023/07/13 15:34:24;;;;;;;;;;;;;;;;;;4913520;28;19935;-82
2023/07/13 15:36:51;;;;;;;;;;;;;;;;;;4924652;28;19937;-82
2023/07/13 15:39:19;;;;;;;;;;;;;;;;;;4911351;29;19934;-81
2023/07/13 15:41:51;;;;;;;;;;;;;;;;;;4912234;29;19935;-80
2023/07/13 15:44:24;;;;;;;;;;;;;;;;;;4910215;29;19934;-82
2023/07/13 15:46:52;;;;;;;;;;;;;;;;;;4911160;29;19935;-82
2023/07/13 15:49:19;;;;;;;;;;;;;;;;;;4897337;28;19935;-82
2023/07/13 15:51:49;;;;;;;;;;;;;;;;;;4914408;29;19935;-82
2023/07/13 15:54:17;;;;;;;;;;;;;;;;;;4913297;29;19950;-80
2023/07/13 15:56:45;;;;;;;;;;;;;;;;;;4910548;29;19930;-82
2023/07/13 15:59:14;;;;;;;;;;;;;;;;;;4913159;29;20741;-82
2023/07/13 16:01:42;;;;;;;;;;;;;;;;;;4914680;29;19935;-81
2023/07/13 16:04:11;;;;;;;;;;;;;;;;;;4908980;29;19942;-81
2023/07/13 16:06:44;;;;;;;;;;;;;;;;;;4919566;29;19934;-81
2023/07/13 16:09:16;;;;;;;;;;;;;;;;;;4912359;29;19959;-82
2023/07/13 16:11:49;;;;;;;;;;;;;;;;;;4935608;28;20785;-83
2023/07/13 16:14:18;;;;;;;;;;;;;;;;;;4909941;29;20332;-81
2023/07/13 16:16:46;;;;;;;;;;;;;;;;;;4917369;29;20715;-82
2023/07/13 16:19:13;;;;;;;;;;;;;;;;;;4933589;28;19935;-81
2023/07/13 16:21:46;;;;;;;;;;;;;;;;;;4908884;29;19942;-81
2023/07/13 16:24:14;;;;;;;;;;;;;;;;;;4913359;29;19966;-82
2023/07/13 16:26:43;;;;;;;;;;;;;;;;;;4920666;29;20310;-81
2023/07/13 16:29:10;;;;;;;;;;;;;;;;;;4932261;28;20851;-80
2023/07/13 16:31:39;;;;;;;;;;;;;;;;;;4922991;28;19934;-82
2023/07/13 16:34:08;;;;;;;;;;;;;;;;;;4914651;28;20939;-81
2023/07/13 16:36:36;;;;;;;;;;;;;;;;;;4919076;29;19935;-82
2023/07/13 16:39:04;;;;;;;;;;;;;;;;;;4908001;29;19942;-81
2023/07/13 16:41:37;;;;;;;;;;;;;;;;;;4906553;28;19934;-82
2023/07/13 16:44:09;;;;;;;;;;;;;;;;;;4927080;28;19942;-82
2023/07/13 16:46:42;;;;;;;;;;;;;;;;;;4913755;29;20410;-81
2023/07/13 16:49:09;;;;;;;;;;;;;;;;;;4893537;28;19930;-82
2023/07/13 16:51:37;;;;;;;;;;;;;;;;;;4909143;29;19930;-80
2023/07/13 16:54:05;;;;;;;;;;;;;;;;;;4909969;28;19935;-87
2023/07/13 16:56:34;;;;;;;;;;;;;;;;;;4923299;29;19945;-86
2023/07/13 16:59:05;;;;;;;;;;;;;;;;;;4916071;28;22002;-81